56II weather

Adams Co Memorial Hospital Heliport
Decatur, Indiana, United States

Public forecast

Using degrees Fahrenheit for public forecast. Weather courtesy of forecast.io.

Closest aviation weather report (METAR) to Adams Co Memorial Hospital Heliport

Closest report is Fort Wayne International Airport, 15.8 nm (29.2 km) NW. Retrieved 2019/10/16 09:54 UTC (39 minutes ago):

KFWA 160954Z 27013G20KT 10SM FEW028 FEW140 07/03 A2974 RMK AO2 SLP071 T00670033

Closest aviation forecast (TAF) to Adams Co Memorial Hospital Heliport

Closest forecast is Fort Wayne International Airport, 15.8 nm (29.2 km) NW. Retrieved 2019/10/16 06:27 UTC (4 hours ago):

TAF KFWA 160524Z 1606/1706 29012G22KT P6SM BKN035 FM161100 27015G22KT P6SM BKN020 FM161200 27016G23KT P6SM VCSH BKN015 FM161700 28018G26KT P6SM OVC020 FM170000 28014G22KT P6SM BKN035